CWEU

Eureka Airport

Eureka, Canada
METAR CWEU 250000Z 00000KT 15SM SKC M21/M26 A2980 RMK SLP094
Observed Flight Rules
Apr-25 @ 00:00 UTC (55 minutes ago) Visual Flight Rules
Visibility Clouds
15 miles
  • Clear skies
Temperatures Readings
Current -21°C / -6°F
Dewpoint -26°C / -15°F
Humidity 64%
Altimeter 29.8" Hg
Pressure 1009.4 hPa
Elevation 10
METAR CWEU 250000Z 00000KT 15SM SKC M21/M26 A2980 RMK SLP094
Observed Flight Rules
Apr-25 @ 00:00 UTC
(55 minutes ago)
VFR
Clouds
  • Clear skies
Temperature Dewpoint
-21°C / -6°F -26°C / -15°F
Humidity Altimeter Pressure
64% 29.8" Hg 1009.4 hPa